sensor_id;sensor_type;location;lat;lon;timestamp;pressure;altitude;pressure_sealevel;temperature;humidity
51237;BME280;37312;47.550;18.818;2022-07-06T00:02:20;99069.13;;;16.45;100.00
51237;BME280;37312;47.550;18.818;2022-07-06T00:04:46;99068.59;;;16.43;100.00
51237;BME280;37312;47.550;18.818;2022-07-06T00:07:12;99060.44;;;16.38;100.00
51237;BME280;37312;47.550;18.818;2022-07-06T00:09:40;99074.84;;;16.39;100.00
51237;BME280;37312;47.550;18.818;2022-07-06T00:12:06;99061.25;;;16.34;100.00
51237;BME280;37312;47.550;18.818;2022-07-06T00:14:31;99069.97;;;16.31;100.00
51237;BME280;37312;47.550;18.818;2022-07-06T00:16:57;99063.97;;;16.29;100.00
51237;BME280;37312;47.550;18.818;2022-07-06T00:19:23;99069.94;;;16.20;100.00
51237;BME280;37312;47.550;18.818;2022-07-06T00:21:49;99077.84;;;16.17;100.00
51237;BME280;37312;47.550;18.818;2022-07-06T00:24:14;99078.37;;;16.19;100.00
51237;BME280;37312;47.550;18.818;2022-07-06T00:26:43;99072.13;;;16.13;100.00
51237;BME280;37312;47.550;18.818;2022-07-06T00:29:09;99063.44;;;16.11;100.00
51237;BME280;37312;47.550;18.818;2022-07-06T00:31:35;99069.66;;;16.12;100.00
51237;BME280;37312;47.550;18.818;2022-07-06T00:34:00;99062.87;;;16.09;100.00
51237;BME280;37312;47.550;18.818;2022-07-06T00:36:26;99071.59;;;16.11;100.00
51237;BME280;37312;47.550;18.818;2022-07-06T00:38:53;99070.22;;;16.03;100.00
51237;BME280;37312;47.550;18.818;2022-07-06T00:41:18;99074.28;;;15.91;100.00
51237;BME280;37312;47.550;18.818;2022-07-06T00:43:48;99071.81;;;15.84;100.00
51237;BME280;37312;47.550;18.818;2022-07-06T00:46:14;99066.38;;;15.84;100.00
51237;BME280;37312;47.550;18.818;2022-07-06T00:48:39;99065.56;;;15.83;100.00
51237;BME280;37312;47.550;18.818;2022-07-06T00:51:05;99062.31;;;15.76;100.00
51237;BME280;37312;47.550;18.818;2022-07-06T00:53:31;99061.69;;;15.69;100.00
51237;BME280;37312;47.550;18.818;2022-07-06T00:55:57;99053.03;;;15.67;100.00
51237;BME280;37312;47.550;18.818;2022-07-06T00:58:23;99054.09;;;15.61;100.00
51237;BME280;37312;47.550;18.818;2022-07-06T01:00:48;99048.66;;;15.61;100.00
51237;BME280;37312;47.550;18.818;2022-07-06T01:03:14;99047.06;;;15.65;100.00
51237;BME280;37312;47.550;18.818;2022-07-06T01:05:40;99037.00;;;15.60;100.00
51237;BME280;37312;47.550;18.818;2022-07-06T01:08:06;99038.31;;;15.58;100.00
51237;BME280;37312;47.550;18.818;2022-07-06T01:10:32;99040.53;;;15.56;100.00
51237;BME280;37312;47.550;18.818;2022-07-06T01:12:57;99040.22;;;15.52;100.00
51237;BME280;37312;47.550;18.818;2022-07-06T01:15:24;99040.47;;;15.51;100.00
51237;BME280;37312;47.550;18.818;2022-07-06T01:17:50;99035.06;;;15.51;100.00
51237;BME280;37312;47.550;18.818;2022-07-06T01:20:19;99033.19;;;15.51;100.00
51237;BME280;37312;47.550;18.818;2022-07-06T01:22:46;99035.59;;;15.48;100.00
51237;BME280;37312;47.550;18.818;2022-07-06T01:25:12;99041.31;;;15.51;100.00
51237;BME280;37312;47.550;18.818;2022-07-06T01:27:39;99035.31;;;15.44;100.00
51237;BME280;37312;47.550;18.818;2022-07-06T01:30:06;99037.75;;;15.40;100.00
51237;BME280;37312;47.550;18.818;2022-07-06T01:32:33;99045.91;;;15.40;100.00
51237;BME280;37312;47.550;18.818;2022-07-06T01:34:59;99045.09;;;15.40;100.00
51237;BME280;37312;47.550;18.818;2022-07-06T01:37:25;99048.63;;;15.40;100.00
51237;BME280;37312;47.550;18.818;2022-07-06T01:39:51;99049.97;;;15.43;100.00
51237;BME280;37312;47.550;18.818;2022-07-06T01:42:17;99056.22;;;15.43;100.00
51237;BME280;37312;47.550;18.818;2022-07-06T01:44:43;99051.88;;;15.42;100.00
51237;BME280;37312;47.550;18.818;2022-07-06T01:47:10;99053.50;;;15.38;100.00
51237;BME280;37312;47.550;18.818;2022-07-06T01:49:35;99049.94;;;15.33;100.00
51237;BME280;37312;47.550;18.818;2022-07-06T01:52:01;99051.03;;;15.32;100.00
51237;BME280;37312;47.550;18.818;2022-07-06T01:54:27;99049.66;;;15.34;100.00
51237;BME280;37312;47.550;18.818;2022-07-06T01:56:53;99056.22;;;15.38;100.00
51237;BME280;37312;47.550;18.818;2022-07-06T01:59:19;99054.84;;;15.41;100.00
51237;BME280;37312;47.550;18.818;2022-07-06T02:01:44;99064.34;;;15.43;100.00
51237;BME280;37312;47.550;18.818;2022-07-06T02:04:10;99067.62;;;15.51;100.00
51237;BME280;37312;47.550;18.818;2022-07-06T02:06:36;99060.84;;;15.53;100.00
51237;BME280;37312;47.550;18.818;2022-07-06T02:09:01;99079.34;;;15.56;100.00
51237;BME280;37312;47.550;18.818;2022-07-06T02:11:27;99085.03;;;15.55;100.00
51237;BME280;37312;47.550;18.818;2022-07-06T02:13:53;99088.81;;;15.54;100.00
51237;BME280;37312;47.550;18.818;2022-07-06T02:16:19;99093.16;;;15.55;100.00
51237;BME280;37312;47.550;18.818;2022-07-06T02:18:45;99082.59;;;15.63;100.00
51237;BME280;37312;47.550;18.818;2022-07-06T02:21:10;99078.53;;;15.66;100.00
51237;BME280;37312;47.550;18.818;2022-07-06T02:23:36;99091.63;;;15.74;100.00
51237;BME280;37312;47.550;18.818;2022-07-06T02:26:02;99086.47;;;15.73;100.00
51237;BME280;37312;47.550;18.818;2022-07-06T02:28:29;99087.56;;;15.72;100.00
51237;BME280;37312;47.550;18.818;2022-07-06T02:30:55;99083.97;;;15.66;100.00
51237;BME280;37312;47.550;18.818;2022-07-06T02:33:21;99094.59;;;15.73;100.00
51237;BME280;37312;47.550;18.818;2022-07-06T02:35:46;99094.81;;;15.66;100.00
51237;BME280;37312;47.550;18.818;2022-07-06T02:38:12;99091.03;;;15.67;100.00
51237;BME280;37312;47.550;18.818;2022-07-06T02:40:38;99101.34;;;15.70;100.00
51237;BME280;37312;47.550;18.818;2022-07-06T02:43:04;99098.66;;;15.70;100.00
51237;BME280;37312;47.550;18.818;2022-07-06T02:45:30;99105.69;;;15.66;100.00
51237;BME280;37312;47.550;18.818;2022-07-06T02:47:56;99111.94;;;15.67;100.00
51237;BME280;37312;47.550;18.818;2022-07-06T02:50:23;99116.31;;;15.73;100.00
51237;BME280;37312;47.550;18.818;2022-07-06T02:52:49;99118.50;;;15.71;100.00
51237;BME280;37312;47.550;18.818;2022-07-06T02:55:15;99117.13;;;15.73;100.00
51237;BME280;37312;47.550;18.818;2022-07-06T02:57:40;99118.50;;;15.76;100.00
51237;BME280;37312;47.550;18.818;2022-07-06T03:00:06;99116.63;;;15.76;100.00
51237;BME280;37312;47.550;18.818;2022-07-06T03:02:33;99116.63;;;15.76;100.00
51237;BME280;37312;47.550;18.818;2022-07-06T03:04:58;99113.34;;;15.74;100.00
51237;BME280;37312;47.550;18.818;2022-07-06T03:07:24;99124.44;;;15.68;100.00
51237;BME280;37312;47.550;18.818;2022-07-06T03:09:50;99124.13;;;15.64;100.00
51237;BME280;37312;47.550;18.818;2022-07-06T03:12:16;99125.50;;;15.61;100.00
51237;BME280;37312;47.550;18.818;2022-07-06T03:14:42;99122.47;;;15.58;100.00
51237;BME280;37312;47.550;18.818;2022-07-06T03:17:07;99134.69;;;15.55;100.00
51237;BME280;37312;47.550;18.818;2022-07-06T03:19:33;99138.78;;;15.58;100.00
51237;BME280;37312;47.550;18.818;2022-07-06T03:21:59;99142.03;;;15.60;100.00
51237;BME280;37312;47.550;18.818;2022-07-06T03:24:25;99143.12;;;15.59;100.00
51237;BME280;37312;47.550;18.818;2022-07-06T03:26:51;99141.47;;;15.58;100.00
51237;BME280;37312;47.550;18.818;2022-07-06T03:29:17;99145.59;;;15.60;100.00
51237;BME280;37312;47.550;18.818;2022-07-06T03:31:43;99160.22;;;15.59;100.00
51237;BME280;37312;47.550;18.818;2022-07-06T03:34:08;99157.78;;;15.58;100.00
51237;BME280;37312;47.550;18.818;2022-07-06T03:36:34;99157.25;;;15.61;100.00
51237;BME280;37312;47.550;18.818;2022-07-06T03:39:00;99157.78;;;15.58;100.00
51237;BME280;37312;47.550;18.818;2022-07-06T03:41:26;99158.88;;;15.57;100.00
51237;BME280;37312;47.550;18.818;2022-07-06T03:43:52;99161.88;;;15.60;100.00
51237;BME280;37312;47.550;18.818;2022-07-06T03:46:17;99152.91;;;15.60;100.00
51237;BME280;37312;47.550;18.818;2022-07-06T03:48:43;99158.62;;;15.63;100.00
51237;BME280;37312;47.550;18.818;2022-07-06T03:51:09;99152.09;;;15.64;100.00
51237;BME280;37312;47.550;18.818;2022-07-06T03:53:36;99156.47;;;15.66;100.00
51237;BME280;37312;47.550;18.818;2022-07-06T03:56:02;99144.81;;;15.70;100.00
51237;BME280;37312;47.550;18.818;2022-07-06T03:58:46;99149.13;;;15.66;100.00
51237;BME280;37312;47.550;18.818;2022-07-06T04:01:12;99154.63;;;15.76;100.00
51237;BME280;37312;47.550;18.818;2022-07-06T04:03:38;99151.12;;;15.81;100.00
51237;BME280;37312;47.550;18.818;2022-07-06T04:06:04;99160.09;;;15.92;100.00
51237;BME280;37312;47.550;18.818;2022-07-06T04:08:30;99149.78;;;15.94;100.00
51237;BME280;37312;47.550;18.818;2022-07-06T04:10:55;99146.00;;;16.00;100.00
51237;BME280;37312;47.550;18.818;2022-07-06T04:13:21;99156.59;;;16.01;100.00
51237;BME280;37312;47.550;18.818;2022-07-06T04:15:47;99152.53;;;16.09;100.00
51237;BME280;37312;47.550;18.818;2022-07-06T04:18:12;99144.38;;;16.09;100.00
51237;BME280;37312;47.550;18.818;2022-07-06T04:20:38;99143.84;;;16.07;100.00
51237;BME280;37312;47.550;18.818;2022-07-06T04:23:04;99134.88;;;16.01;100.00
51237;BME280;37312;47.550;18.818;2022-07-06T04:25:30;99129.41;;;15.96;100.00
51237;BME280;37312;47.550;18.818;2022-07-06T04:27:56;99120.44;;;15.96;100.00
51237;BME280;37312;47.550;18.818;2022-07-06T04:30:21;99122.66;;;15.99;100.00
51237;BME280;37312;47.550;18.818;2022-07-06T04:32:47;99120.47;;;16.01;100.00
51237;BME280;37312;47.550;18.818;2022-07-06T04:35:13;99126.44;;;15.98;100.00
51237;BME280;37312;47.550;18.818;2022-07-06T04:37:39;99122.09;;;15.97;100.00
51237;BME280;37312;47.550;18.818;2022-07-06T04:40:04;99122.09;;;16.02;100.00
51237;BME280;37312;47.550;18.818;2022-07-06T04:42:30;99119.38;;;16.07;100.00
51237;BME280;37312;47.550;18.818;2022-07-06T04:44:59;99120.78;;;16.15;100.00
51237;BME280;37312;47.550;18.818;2022-07-06T04:47:25;99128.09;;;16.14;100.00
51237;BME280;37312;47.550;18.818;2022-07-06T04:49:50;99117.25;;;16.30;100.00
51237;BME280;37312;47.550;18.818;2022-07-06T04:52:16;99112.06;;;16.43;100.00
51237;BME280;37312;47.550;18.818;2022-07-06T04:54:42;99125.66;;;16.59;100.00
51237;BME280;37312;47.550;18.818;2022-07-06T04:57:08;99114.25;;;16.72;100.00
51237;BME280;37312;47.550;18.818;2022-07-06T04:59:33;99123.22;;;16.73;100.00
51237;BME280;37312;47.550;18.818;2022-07-06T05:01:59;99118.06;;;16.86;100.00
51237;BME280;37312;47.550;18.818;2022-07-06T05:04:25;99125.13;;;17.03;100.00
51237;BME280;37312;47.550;18.818;2022-07-06T05:06:51;99132.03;;;17.45;100.00
51237;BME280;37312;47.550;18.818;2022-07-06T05:09:16;99147.22;;;18.21;100.00
51237;BME280;37312;47.550;18.818;2022-07-06T05:11:42;99159.53;;;19.16;100.00
51237;BME280;37312;47.550;18.818;2022-07-06T05:14:08;99147.91;;;19.78;100.00
51237;BME280;37312;47.550;18.818;2022-07-06T05:16:34;99136.72;;;20.17;100.00
51237;BME280;37312;47.550;18.818;2022-07-06T05:19:00;99140.63;;;19.92;100.00
51237;BME280;37312;47.550;18.818;2022-07-06T05:21:25;99143.12;;;19.89;100.00
51237;BME280;37312;47.550;18.818;2022-07-06T05:23:51;99150.06;;;20.19;100.00
51237;BME280;37312;47.550;18.818;2022-07-06T05:26:17;99150.72;;;19.92;100.00
51237;BME280;37312;47.550;18.818;2022-07-06T05:28:42;99152.16;;;19.65;100.00
51237;BME280;37312;47.550;18.818;2022-07-06T05:31:08;99153.22;;;19.69;100.00
51237;BME280;37312;47.550;18.818;2022-07-06T05:33:34;99160.66;;;19.88;100.00
51237;BME280;37312;47.550;18.818;2022-07-06T05:36:00;99159.62;;;20.22;100.00
51237;BME280;37312;47.550;18.818;2022-07-06T05:38:26;99167.44;;;20.09;100.00
51237;BME280;37312;47.550;18.818;2022-07-06T05:40:51;99163.09;;;20.27;100.00
51237;BME280;37312;47.550;18.818;2022-07-06T05:43:17;99177.19;;;20.34;100.00
51237;BME280;37312;47.550;18.818;2022-07-06T05:45:43;99175.16;;;20.26;99.66
51237;BME280;37312;47.550;18.818;2022-07-06T05:48:09;99174.25;;;20.31;99.79
51237;BME280;37312;47.550;18.818;2022-07-06T05:50:53;99187.28;;;20.58;98.48
51237;BME280;37312;47.550;18.818;2022-07-06T05:53:19;99192.44;;;20.59;98.39
51237;BME280;37312;47.550;18.818;2022-07-06T05:55:45;99192.94;;;20.80;98.13
51237;BME280;37312;47.550;18.818;2022-07-06T05:58:11;99197.31;;;20.44;98.00
51237;BME280;37312;47.550;18.818;2022-07-06T06:00:36;99194.28;;;20.64;98.18
51237;BME280;37312;47.550;18.818;2022-07-06T06:03:02;99187.38;;;20.86;96.75
51237;BME280;37312;47.550;18.818;2022-07-06T06:05:28;99197.31;;;21.28;94.50
51237;BME280;37312;47.550;18.818;2022-07-06T06:07:54;99201.41;;;21.72;89.80
51237;BME280;37312;47.550;18.818;2022-07-06T06:10:20;99201.00;;;21.93;88.00
51237;BME280;37312;47.550;18.818;2022-07-06T06:12:47;99204.03;;;21.77;90.08
51237;BME280;37312;47.550;18.818;2022-07-06T06:15:13;99196.78;;;22.37;86.18
51237;BME280;37312;47.550;18.818;2022-07-06T06:17:38;99205.16;;;22.99;81.14
51237;BME280;37312;47.550;18.818;2022-07-06T06:20:05;99205.78;;;23.99;78.06
51237;BME280;37312;47.550;18.818;2022-07-06T06:22:43;99209.44;;;24.51;73.67
51237;BME280;37312;47.550;18.818;2022-07-06T06:25:09;99211.56;;;24.63;73.23
51237;BME280;37312;47.550;18.818;2022-07-06T06:27:34;99202.47;;;25.53;68.35
51237;BME280;37312;47.550;18.818;2022-07-06T06:30:00;99206.38;;;25.44;68.09
51237;BME280;37312;47.550;18.818;2022-07-06T06:32:26;99196.34;;;25.39;68.93
51237;BME280;37312;47.550;18.818;2022-07-06T06:34:51;99191.69;;;25.13;68.48
51237;BME280;37312;47.550;18.818;2022-07-06T06:37:17;99188.41;;;25.37;67.14
51237;BME280;37312;47.550;18.818;2022-07-06T06:39:43;99196.00;;;25.88;65.64
51237;BME280;37312;47.550;18.818;2022-07-06T06:42:08;99197.88;;;26.68;62.85
51237;BME280;37312;47.550;18.818;2022-07-06T06:44:34;99197.62;;;26.94;60.75
51237;BME280;37312;47.550;18.818;2022-07-06T06:47:00;99208.31;;;26.95;61.11
51237;BME280;37312;47.550;18.818;2022-07-06T06:49:26;99198.81;;;26.72;62.41
51237;BME280;37312;47.550;18.818;2022-07-06T06:51:51;99199.06;;;27.70;59.44
51237;BME280;37312;47.550;18.818;2022-07-06T06:54:17;99201.47;;;27.59;59.17
51237;BME280;37312;47.550;18.818;2022-07-06T06:56:43;99198.78;;;27.63;58.17
51237;BME280;37312;47.550;18.818;2022-07-06T06:59:09;99212.94;;;28.35;57.54
51237;BME280;37312;47.550;18.818;2022-07-06T07:01:34;99209.78;;;29.18;54.11
51237;BME280;37312;47.550;18.818;2022-07-06T07:04:00;99214.41;;;28.57;54.46
51237;BME280;37312;47.550;18.818;2022-07-06T07:06:26;99206.72;;;28.79;54.31
51237;BME280;37312;47.550;18.818;2022-07-06T07:08:52;99198.78;;;28.93;54.09
51237;BME280;37312;47.550;18.818;2022-07-06T07:11:17;99199.72;;;28.97;54.42
51237;BME280;37312;47.550;18.818;2022-07-06T07:13:43;99196.66;;;28.46;54.60
51237;BME280;37312;47.550;18.818;2022-07-06T07:16:09;99195.34;;;27.78;55.61
51237;BME280;37312;47.550;18.818;2022-07-06T07:18:34;99199.66;;;28.53;54.92
51237;BME280;37312;47.550;18.818;2022-07-06T07:21:00;99192.37;;;28.61;54.04
51237;BME280;37312;47.550;18.818;2022-07-06T07:23:26;99189.84;;;28.84;55.21
51237;BME280;37312;47.550;18.818;2022-07-06T07:25:52;99199.44;;;29.02;52.72
51237;BME280;37312;47.550;18.818;2022-07-06T07:28:17;99188.75;;;29.64;51.89
51237;BME280;37312;47.550;18.818;2022-07-06T07:30:43;99195.72;;;30.06;50.73
51237;BME280;37312;47.550;18.818;2022-07-06T07:33:09;99189.53;;;30.12;49.97
51237;BME280;37312;47.550;18.818;2022-07-06T07:35:34;99201.66;;;29.57;49.71
51237;BME280;37312;47.550;18.818;2022-07-06T07:38:00;99202.31;;;28.78;51.71
51237;BME280;37312;47.550;18.818;2022-07-06T07:40:26;99198.72;;;29.49;51.65
51237;BME280;37312;47.550;18.818;2022-07-06T07:42:52;99209.53;;;30.38;48.74
51237;BME280;37312;47.550;18.818;2022-07-06T07:45:18;99206.31;;;30.36;47.82
51237;BME280;37312;47.550;18.818;2022-07-06T07:47:44;99203.97;;;30.02;48.73
51237;BME280;37312;47.550;18.818;2022-07-06T07:50:10;99204.16;;;31.26;45.84
51237;BME280;37312;47.550;18.818;2022-07-06T07:52:36;99200.69;;;31.79;44.77
51237;BME280;37312;47.550;18.818;2022-07-06T07:55:01;99202.97;;;32.23;43.02
51237;BME280;37312;47.550;18.818;2022-07-06T07:57:27;99210.56;;;32.26;42.21
51237;BME280;37312;47.550;18.818;2022-07-06T07:59:53;99216.72;;;32.69;40.97
51237;BME280;37312;47.550;18.818;2022-07-06T08:02:19;99224.06;;;32.85;40.81
51237;BME280;37312;47.550;18.818;2022-07-06T08:04:45;99216.72;;;33.44;39.95
51237;BME280;37312;47.550;18.818;2022-07-06T08:07:11;99215.28;;;32.82;40.67
51237;BME280;37312;47.550;18.818;2022-07-06T08:09:36;99216.44;;;33.56;39.04
51237;BME280;37312;47.550;18.818;2022-07-06T08:12:02;99212.72;;;33.38;39.36
51237;BME280;37312;47.550;18.818;2022-07-06T08:14:28;99225.03;;;34.37;38.11
51237;BME280;37312;47.550;18.818;2022-07-06T08:16:54;99223.03;;;33.37;38.46
51237;BME280;37312;47.550;18.818;2022-07-06T08:19:19;99228.38;;;33.53;37.35
51237;BME280;37312;47.550;18.818;2022-07-06T08:21:45;99225.78;;;32.96;38.71
51237;BME280;37312;47.550;18.818;2022-07-06T08:24:11;99229.16;;;32.49;39.66
51237;BME280;37312;47.550;18.818;2022-07-06T08:26:37;99228.47;;;32.25;39.26
51237;BME280;37312;47.550;18.818;2022-07-06T08:29:03;99229.69;;;32.01;39.86
51237;BME280;37312;47.550;18.818;2022-07-06T08:31:29;99230.81;;;31.96;40.43
51237;BME280;37312;47.550;18.818;2022-07-06T08:33:55;99235.53;;;32.49;39.12
51237;BME280;37312;47.550;18.818;2022-07-06T08:36:21;99226.50;;;32.86;37.83
51237;BME280;37312;47.550;18.818;2022-07-06T08:38:47;99224.78;;;31.94;39.30
51237;BME280;37312;47.550;18.818;2022-07-06T08:41:14;99229.50;;;31.90;41.77
51237;BME280;37312;47.550;18.818;2022-07-06T08:43:40;99241.28;;;32.03;39.35
51237;BME280;37312;47.550;18.818;2022-07-06T08:46:06;99239.13;;;31.70;40.50
51237;BME280;37312;47.550;18.818;2022-07-06T08:48:35;99244.25;;;31.91;40.33
51237;BME280;37312;47.550;18.818;2022-07-06T08:51:01;99244.47;;;32.58;37.44
51237;BME280;37312;47.550;18.818;2022-07-06T08:53:27;99248.03;;;32.89;38.53
51237;BME280;37312;47.550;18.818;2022-07-06T08:55:53;99237.78;;;32.36;38.30
51237;BME280;37312;47.550;18.818;2022-07-06T08:58:19;99228.34;;;30.44;40.93
51237;BME280;37312;47.550;18.818;2022-07-06T09:00:46;99232.34;;;30.11;43.44
51237;BME280;37312;47.550;18.818;2022-07-06T09:03:12;99230.19;;;30.75;40.92
51237;BME280;37312;47.550;18.818;2022-07-06T09:05:39;99233.44;;;31.63;41.01
51237;BME280;37312;47.550;18.818;2022-07-06T09:08:05;99219.62;;;31.70;39.62
51237;BME280;37312;47.550;18.818;2022-07-06T09:10:30;99232.69;;;32.15;36.17
51237;BME280;37312;47.550;18.818;2022-07-06T09:13:06;99226.91;;;31.32;39.55
51237;BME280;37312;47.550;18.818;2022-07-06T09:15:32;99230.72;;;31.93;38.95
51237;BME280;37312;47.550;18.818;2022-07-06T09:17:59;99226.81;;;31.05;38.98
51237;BME280;37312;47.550;18.818;2022-07-06T09:20:24;99225.22;;;31.47;38.35
51237;BME280;37312;47.550;18.818;2022-07-06T09:22:50;99220.56;;;31.54;40.89
51237;BME280;37312;47.550;18.818;2022-07-06T09:25:18;99221.84;;;31.84;39.69
51237;BME280;37312;47.550;18.818;2022-07-06T09:27:45;99226.13;;;31.77;38.92
51237;BME280;37312;47.550;18.818;2022-07-06T09:30:13;99219.66;;;31.47;38.86
51237;BME280;37312;47.550;18.818;2022-07-06T09:32:46;99219.03;;;30.37;39.29
51237;BME280;37312;47.550;18.818;2022-07-06T09:35:21;99229.84;;;30.06;40.50
51237;BME280;37312;47.550;18.818;2022-07-06T09:37:51;99221.34;;;29.99;41.27
51237;BME280;37312;47.550;18.818;2022-07-06T09:40:24;99219.41;;;30.35;40.57
51237;BME280;37312;47.550;18.818;2022-07-06T09:42:50;99227.97;;;30.46;38.62
51237;BME280;37312;47.550;18.818;2022-07-06T09:45:20;99226.94;;;29.83;39.85
51237;BME280;37312;47.550;18.818;2022-07-06T09:47:46;99229.13;;;30.09;39.34
51237;BME280;37312;47.550;18.818;2022-07-06T09:50:14;99219.41;;;29.84;40.14
51237;BME280;37312;47.550;18.818;2022-07-06T09:52:40;99211.34;;;29.79;40.58
51237;BME280;37312;47.550;18.818;2022-07-06T09:55:14;99216.78;;;29.43;38.78
51237;BME280;37312;47.550;18.818;2022-07-06T09:57:51;99208.91;;;29.45;39.63
51237;BME280;37312;47.550;18.818;2022-07-06T10:00:18;99214.28;;;29.38;37.80
51237;BME280;37312;47.550;18.818;2022-07-06T10:02:44;99224.06;;;29.80;37.66
51237;BME280;37312;47.550;18.818;2022-07-06T10:05:10;99225.69;;;29.81;39.49
51237;BME280;37312;47.550;18.818;2022-07-06T10:07:36;99235.53;;;29.78;37.75
51237;BME280;37312;47.550;18.818;2022-07-06T10:10:02;99225.59;;;29.77;35.60
51237;BME280;37312;47.550;18.818;2022-07-06T10:12:28;99223.41;;;29.55;35.36
51237;BME280;37312;47.550;18.818;2022-07-06T10:14:54;99221.88;;;29.25;35.90
51237;BME280;37312;47.550;18.818;2022-07-06T10:17:20;99230.53;;;29.24;34.31
51237;BME280;37312;47.550;18.818;2022-07-06T10:19:46;99226.00;;;29.03;35.08
51237;BME280;37312;47.550;18.818;2022-07-06T10:22:12;99218.41;;;29.28;35.82
51237;BME280;37312;47.550;18.818;2022-07-06T10:24:38;99227.53;;;29.29;35.59
51237;BME280;37312;47.550;18.818;2022-07-06T10:27:09;99229.38;;;29.25;35.26
51237;BME280;37312;47.550;18.818;2022-07-06T10:29:36;99219.72;;;29.35;34.29
51237;BME280;37312;47.550;18.818;2022-07-06T10:32:02;99223.28;;;29.19;34.14
51237;BME280;37312;47.550;18.818;2022-07-06T10:34:28;99223.34;;;29.07;36.73
51237;BME280;37312;47.550;18.818;2022-07-06T10:36:54;99226.28;;;29.42;36.31
51237;BME280;37312;47.550;18.818;2022-07-06T10:39:32;99237.91;;;29.32;33.91
51237;BME280;37312;47.550;18.818;2022-07-06T10:45:01;99227.09;;;29.43;35.25
51237;BME280;37312;47.550;18.818;2022-07-06T10:47:27;99235.72;;;29.09;37.52
51237;BME280;37312;47.550;18.818;2022-07-06T10:49:53;99227.25;;;29.50;36.61
51237;BME280;37312;47.550;18.818;2022-07-06T10:52:29;99241.28;;;29.25;34.91
51237;BME280;37312;47.550;18.818;2022-07-06T10:55:27;99235.28;;;28.95;34.25
51237;BME280;37312;47.550;18.818;2022-07-06T10:57:54;99243.75;;;28.86;34.91
51237;BME280;37312;47.550;18.818;2022-07-06T11:00:20;99236.69;;;28.89;35.73
51237;BME280;37312;47.550;18.818;2022-07-06T11:02:46;99230.56;;;28.67;34.70
51237;BME280;37312;47.550;18.818;2022-07-06T11:05:12;99241.84;;;29.03;34.84
51237;BME280;37312;47.550;18.818;2022-07-06T11:08:00;99240.94;;;29.27;34.28
51237;BME280;37312;47.550;18.818;2022-07-06T11:10:26;99239.59;;;29.37;35.02
51237;BME280;37312;47.550;18.818;2022-07-06T11:12:58;99239.16;;;29.66;34.88
51237;BME280;37312;47.550;18.818;2022-07-06T11:18:12;99233.69;;;29.22;34.25
51237;BME280;37312;47.550;18.818;2022-07-06T11:20:38;99246.47;;;29.11;34.66
51237;BME280;37312;47.550;18.818;2022-07-06T11:23:04;99253.78;;;28.63;34.70
51237;BME280;37312;47.550;18.818;2022-07-06T11:25:30;99244.84;;;28.69;34.58
51237;BME280;37312;47.550;18.818;2022-07-06T11:27:56;99251.28;;;28.86;36.18
51237;BME280;37312;47.550;18.818;2022-07-06T11:30:22;99253.22;;;28.57;33.49
51237;BME280;37312;47.550;18.818;2022-07-06T11:32:48;99258.53;;;28.50;34.58
51237;BME280;37312;47.550;18.818;2022-07-06T11:35:20;99249.75;;;28.88;34.03
51237;BME280;37312;47.550;18.818;2022-07-06T11:37:46;99261.06;;;28.55;32.50
51237;BME280;37312;47.550;18.818;2022-07-06T11:40:13;99249.53;;;28.41;33.74
51237;BME280;37312;47.550;18.818;2022-07-06T11:42:52;99250.00;;;28.31;34.10
51237;BME280;37312;47.550;18.818;2022-07-06T11:45:25;99263.38;;;28.41;33.36
51237;BME280;37312;47.550;18.818;2022-07-06T11:47:51;99265.00;;;28.54;32.89
51237;BME280;37312;47.550;18.818;2022-07-06T11:50:20;99271.59;;;28.90;33.66
51237;BME280;37312;47.550;18.818;2022-07-06T11:52:45;99274.59;;;28.85;30.66
51237;BME280;37312;47.550;18.818;2022-07-06T11:55:14;99267.31;;;28.52;30.30
51237;BME280;37312;47.550;18.818;2022-07-06T11:57:39;99257.16;;;28.84;31.66
51237;BME280;37312;47.550;18.818;2022-07-06T12:00:05;99260.41;;;29.15;31.90
51237;BME280;37312;47.550;18.818;2022-07-06T12:02:31;99260.16;;;29.20;32.14
51237;BME280;37312;47.550;18.818;2022-07-06T12:04:57;99254.53;;;29.32;31.49
51237;BME280;37312;47.550;18.818;2022-07-06T12:07:23;99242.31;;;29.49;31.99
51237;BME280;37312;47.550;18.818;2022-07-06T12:09:49;99254.19;;;29.34;32.70
51237;BME280;37312;47.550;18.818;2022-07-06T12:12:15;99236.72;;;29.17;32.43
51237;BME280;37312;47.550;18.818;2022-07-06T12:14:42;99242.16;;;29.14;32.12
51237;BME280;37312;47.550;18.818;2022-07-06T12:17:11;99236.00;;;29.20;32.25
51237;BME280;37312;47.550;18.818;2022-07-06T12:19:38;99252.31;;;29.22;32.01
51237;BME280;37312;47.550;18.818;2022-07-06T12:22:05;99251.94;;;28.95;31.54
51237;BME280;37312;47.550;18.818;2022-07-06T12:24:31;99251.38;;;28.49;32.08
51237;BME280;37312;47.550;18.818;2022-07-06T12:26:58;99241.09;;;28.37;33.39
51237;BME280;37312;47.550;18.818;2022-07-06T12:29:23;99239.22;;;28.66;33.50
51237;BME280;37312;47.550;18.818;2022-07-06T12:31:50;99247.66;;;28.57;33.05
51237;BME280;37312;47.550;18.818;2022-07-06T12:34:18;99245.81;;;28.61;33.10
51237;BME280;37312;47.550;18.818;2022-07-06T12:39:16;99237.31;;;28.30;32.67
51237;BME280;37312;47.550;18.818;2022-07-06T12:44:18;99237.69;;;28.16;33.47
51237;BME280;37312;47.550;18.818;2022-07-06T12:46:45;99236.59;;;28.33;32.20
51237;BME280;37312;47.550;18.818;2022-07-06T12:49:28;99248.88;;;28.19;32.11
51237;BME280;37312;47.550;18.818;2022-07-06T12:51:55;99235.50;;;28.09;33.54
51237;BME280;37312;47.550;18.818;2022-07-06T12:54:22;99237.44;;;27.72;33.29